sensor_id;sensor_type;location;lat;lon;timestamp;pressure;altitude;pressure_sealevel;temperature;humidity
21826;BME280;11075;47.944;11.776;2023-03-19T00:00:41;94421.75;;;-2.23;52.69
21826;BME280;11075;47.944;11.776;2023-03-19T00:03:08;94430.78;;;-1.89;50.33
21826;BME280;11075;47.944;11.776;2023-03-19T00:05:35;94434.50;;;-1.75;49.37
21826;BME280;11075;47.944;11.776;2023-03-19T00:08:02;94435.47;;;-2.37;51.63
21826;BME280;11075;47.944;11.776;2023-03-19T00:10:28;94436.84;;;-1.63;48.92
21826;BME280;11075;47.944;11.776;2023-03-19T00:12:55;94438.69;;;-1.43;47.93
21826;BME280;11075;47.944;11.776;2023-03-19T00:15:22;94433.97;;;-1.92;48.83
21826;BME280;11075;47.944;11.776;2023-03-19T00:17:49;94433.41;;;-1.48;48.53
21826;BME280;11075;47.944;11.776;2023-03-19T00:20:17;94426.91;;;-3.42;54.46
21826;BME280;11075;47.944;11.776;2023-03-19T00:22:45;94425.13;;;-3.31;54.85
21826;BME280;11075;47.944;11.776;2023-03-19T00:25:12;94427.56;;;-2.31;50.77
21826;BME280;11075;47.944;11.776;2023-03-19T00:27:39;94417.97;;;-2.73;51.66
21826;BME280;11075;47.944;11.776;2023-03-19T00:30:07;94430.75;;;-4.77;59.31
21826;BME280;11075;47.944;11.776;2023-03-19T00:32:34;94431.75;;;-4.30;59.98
21826;BME280;11075;47.944;11.776;2023-03-19T00:35:03;94438.63;;;-3.17;53.14
21826;BME280;11075;47.944;11.776;2023-03-19T00:37:32;94439.56;;;-2.86;52.39
21826;BME280;11075;47.944;11.776;2023-03-19T00:40:00;94446.38;;;-3.48;54.17
21826;BME280;11075;47.944;11.776;2023-03-19T00:42:26;94449.28;;;-4.13;58.89
21826;BME280;11075;47.944;11.776;2023-03-19T00:44:53;94457.25;;;-2.82;52.92
21826;BME280;11075;47.944;11.776;2023-03-19T00:47:20;94455.28;;;-2.34;50.71
21826;BME280;11075;47.944;11.776;2023-03-19T00:49:48;94456.50;;;-2.72;50.64
21826;BME280;11075;47.944;11.776;2023-03-19T00:52:15;94460.22;;;-2.63;50.33
21826;BME280;11075;47.944;11.776;2023-03-19T00:54:41;94459.19;;;-3.61;52.84
21826;BME280;11075;47.944;11.776;2023-03-19T00:57:08;94465.81;;;-2.39;49.75
21826;BME280;11075;47.944;11.776;2023-03-19T00:59:35;94473.19;;;-2.51;49.98
21826;BME280;11075;47.944;11.776;2023-03-19T01:02:02;94470.25;;;-3.17;52.29
21826;BME280;11075;47.944;11.776;2023-03-19T01:04:30;94469.19;;;-4.22;57.36
21826;BME280;11075;47.944;11.776;2023-03-19T01:06:58;94474.56;;;-5.27;58.97
21826;BME280;11075;47.944;11.776;2023-03-19T01:09:25;94477.63;;;-4.20;56.37
21826;BME280;11075;47.944;11.776;2023-03-19T01:11:52;94476.47;;;-3.76;54.97
21826;BME280;11075;47.944;11.776;2023-03-19T01:14:20;94465.00;;;-4.45;56.91
21826;BME280;11075;47.944;11.776;2023-03-19T01:16:47;94465.75;;;-3.96;56.21
21826;BME280;11075;47.944;11.776;2023-03-19T01:19:14;94462.41;;;-3.54;53.77
21826;BME280;11075;47.944;11.776;2023-03-19T01:21:42;94462.50;;;-4.03;56.56
21826;BME280;11075;47.944;11.776;2023-03-19T01:24:15;94468.06;;;-4.80;58.98
21826;BME280;11075;47.944;11.776;2023-03-19T01:26:44;94459.91;;;-3.71;54.19
21826;BME280;11075;47.944;11.776;2023-03-19T01:29:21;94450.31;;;-3.50;53.19
21826;BME280;11075;47.944;11.776;2023-03-19T01:31:48;94459.59;;;-4.07;57.21
21826;BME280;11075;47.944;11.776;2023-03-19T01:34:35;94456.03;;;-3.58;54.32
21826;BME280;11075;47.944;11.776;2023-03-19T01:37:10;94446.66;;;-4.40;56.84
21826;BME280;11075;47.944;11.776;2023-03-19T01:39:39;94451.31;;;-3.56;53.50
21826;BME280;11075;47.944;11.776;2023-03-19T01:42:11;94446.53;;;-3.17;51.28
21826;BME280;11075;47.944;11.776;2023-03-19T01:44:47;94437.94;;;-3.45;53.27
21826;BME280;11075;47.944;11.776;2023-03-19T01:47:38;94446.34;;;-3.85;54.23
21826;BME280;11075;47.944;11.776;2023-03-19T01:50:39;94448.09;;;-3.63;53.60
21826;BME280;11075;47.944;11.776;2023-03-19T01:53:26;94452.84;;;-3.66;54.86
21826;BME280;11075;47.944;11.776;2023-03-19T01:56:14;94446.81;;;-3.93;54.85
21826;BME280;11075;47.944;11.776;2023-03-19T01:58:57;94454.59;;;-4.84;59.41
21826;BME280;11075;47.944;11.776;2023-03-19T02:02:04;94457.41;;;-5.12;60.94
21826;BME280;11075;47.944;11.776;2023-03-19T02:04:33;94457.03;;;-5.21;62.42
21826;BME280;11075;47.944;11.776;2023-03-19T02:07:02;94457.16;;;-4.89;61.89
21826;BME280;11075;47.944;11.776;2023-03-19T02:09:30;94460.06;;;-4.42;59.11
21826;BME280;11075;47.944;11.776;2023-03-19T02:11:58;94456.56;;;-5.18;64.33
21826;BME280;11075;47.944;11.776;2023-03-19T02:14:26;94465.84;;;-5.99;70.13
21826;BME280;11075;47.944;11.776;2023-03-19T02:16:53;94454.53;;;-4.89;62.24
21826;BME280;11075;47.944;11.776;2023-03-19T02:19:31;94451.44;;;-4.86;62.12
21826;BME280;11075;47.944;11.776;2023-03-19T02:22:01;94444.47;;;-4.21;59.07
21826;BME280;11075;47.944;11.776;2023-03-19T02:24:35;94445.13;;;-3.77;55.14
21826;BME280;11075;47.944;11.776;2023-03-19T02:27:09;94443.91;;;-5.21;62.06
21826;BME280;11075;47.944;11.776;2023-03-19T02:29:40;94449.63;;;-5.96;66.83
21826;BME280;11075;47.944;11.776;2023-03-19T02:32:07;94463.81;;;-5.25;62.75
21826;BME280;11075;47.944;11.776;2023-03-19T02:34:37;94464.75;;;-5.53;62.47
21826;BME280;11075;47.944;11.776;2023-03-19T02:37:10;94459.78;;;-5.33;63.82
21826;BME280;11075;47.944;11.776;2023-03-19T02:42:13;94460.41;;;-5.04;61.67
21826;BME280;11075;47.944;11.776;2023-03-19T02:44:42;94461.31;;;-5.15;66.40
21826;BME280;11075;47.944;11.776;2023-03-19T02:47:09;94455.16;;;-4.82;64.11
21826;BME280;11075;47.944;11.776;2023-03-19T02:49:36;94450.94;;;-4.83;63.71
21826;BME280;11075;47.944;11.776;2023-03-19T02:52:03;94457.81;;;-4.55;60.66
21826;BME280;11075;47.944;11.776;2023-03-19T02:54:30;94468.78;;;-5.07;64.20
21826;BME280;11075;47.944;11.776;2023-03-19T02:56:57;94466.97;;;-5.45;67.81
21826;BME280;11075;47.944;11.776;2023-03-19T02:59:24;94466.41;;;-5.08;63.46
21826;BME280;11075;47.944;11.776;2023-03-19T03:01:51;94474.84;;;-5.45;64.60
21826;BME280;11075;47.944;11.776;2023-03-19T03:04:19;94468.13;;;-4.97;61.74
21826;BME280;11075;47.944;11.776;2023-03-19T03:06:46;94477.28;;;-4.78;59.50
21826;BME280;11075;47.944;11.776;2023-03-19T03:09:13;94478.06;;;-5.21;64.77
21826;BME280;11075;47.944;11.776;2023-03-19T03:11:41;94481.19;;;-4.80;61.23
21826;BME280;11075;47.944;11.776;2023-03-19T03:14:09;94482.72;;;-4.84;64.29
21826;BME280;11075;47.944;11.776;2023-03-19T03:16:37;94479.50;;;-4.16;61.12
21826;BME280;11075;47.944;11.776;2023-03-19T03:19:04;94488.44;;;-4.44;61.14
21826;BME280;11075;47.944;11.776;2023-03-19T03:21:31;94481.22;;;-4.00;58.68
21826;BME280;11075;47.944;11.776;2023-03-19T03:24:01;94480.09;;;-4.36;59.93
21826;BME280;11075;47.944;11.776;2023-03-19T03:26:28;94480.56;;;-4.66;61.83
21826;BME280;11075;47.944;11.776;2023-03-19T03:28:55;94485.53;;;-5.13;64.61
21826;BME280;11075;47.944;11.776;2023-03-19T03:31:22;94488.72;;;-4.67;61.72
21826;BME280;11075;47.944;11.776;2023-03-19T03:33:49;94486.06;;;-4.18;59.17
21826;BME280;11075;47.944;11.776;2023-03-19T03:36:16;94486.75;;;-4.55;59.53
21826;BME280;11075;47.944;11.776;2023-03-19T03:38:44;94487.72;;;-5.27;63.35
21826;BME280;11075;47.944;11.776;2023-03-19T03:41:11;94499.09;;;-4.99;62.21
21826;BME280;11075;47.944;11.776;2023-03-19T03:43:39;94501.56;;;-4.93;62.10
21826;BME280;11075;47.944;11.776;2023-03-19T03:46:07;94500.66;;;-5.20;64.85
21826;BME280;11075;47.944;11.776;2023-03-19T03:48:34;94502.75;;;-4.35;60.18
21826;BME280;11075;47.944;11.776;2023-03-19T03:51:02;94497.63;;;-4.46;60.39
21826;BME280;11075;47.944;11.776;2023-03-19T03:53:30;94495.69;;;-4.02;58.83
21826;BME280;11075;47.944;11.776;2023-03-19T03:55:58;94496.28;;;-4.49;62.91
21826;BME280;11075;47.944;11.776;2023-03-19T03:58:27;94501.91;;;-4.62;64.22
21826;BME280;11075;47.944;11.776;2023-03-19T04:00:54;94509.00;;;-4.84;64.10
21826;BME280;11075;47.944;11.776;2023-03-19T04:03:22;94513.22;;;-4.40;64.50
21826;BME280;11075;47.944;11.776;2023-03-19T04:05:50;94512.63;;;-4.20;64.17
21826;BME280;11075;47.944;11.776;2023-03-19T04:08:19;94502.91;;;-1.83;54.47
21826;BME280;11075;47.944;11.776;2023-03-19T04:10:45;94516.50;;;-4.27;60.93
21826;BME280;11075;47.944;11.776;2023-03-19T04:13:13;94516.19;;;-4.04;63.02
21826;BME280;11075;47.944;11.776;2023-03-19T04:15:43;94518.28;;;-3.10;55.17
21826;BME280;11075;47.944;11.776;2023-03-19T04:18:13;94505.84;;;-0.39;48.52
21826;BME280;11075;47.944;11.776;2023-03-19T04:20:40;94511.41;;;0.48;44.93
21826;BME280;11075;47.944;11.776;2023-03-19T04:23:07;94513.22;;;0.86;43.63
21826;BME280;11075;47.944;11.776;2023-03-19T04:25:34;94504.44;;;-2.08;49.82
21826;BME280;11075;47.944;11.776;2023-03-19T04:28:01;94518.16;;;-3.62;58.56
21826;BME280;11075;47.944;11.776;2023-03-19T04:30:29;94528.03;;;-3.80;59.91
21826;BME280;11075;47.944;11.776;2023-03-19T04:32:55;94517.38;;;-3.90;61.24
21826;BME280;11075;47.944;11.776;2023-03-19T04:35:22;94521.22;;;-4.03;61.22
21826;BME280;11075;47.944;11.776;2023-03-19T04:37:49;94519.19;;;-3.32;59.90
21826;BME280;11075;47.944;11.776;2023-03-19T04:40:18;94525.28;;;-3.90;62.43
21826;BME280;11075;47.944;11.776;2023-03-19T04:42:48;94533.19;;;-3.90;61.19
21826;BME280;11075;47.944;11.776;2023-03-19T04:45:27;94530.38;;;-3.51;58.92
21826;BME280;11075;47.944;11.776;2023-03-19T04:47:55;94524.94;;;-4.25;63.97
21826;BME280;11075;47.944;11.776;2023-03-19T04:50:22;94524.13;;;-3.40;59.27
21826;BME280;11075;47.944;11.776;2023-03-19T04:52:49;94525.56;;;-3.59;60.43
21826;BME280;11075;47.944;11.776;2023-03-19T04:55:17;94522.56;;;-3.73;62.12
21826;BME280;11075;47.944;11.776;2023-03-19T04:57:59;94534.94;;;-4.01;62.87
21826;BME280;11075;47.944;11.776;2023-03-19T05:00:28;94539.09;;;-4.32;62.96
21826;BME280;11075;47.944;11.776;2023-03-19T05:02:57;94536.09;;;-4.40;66.15
21826;BME280;11075;47.944;11.776;2023-03-19T05:05:26;94539.72;;;-4.19;64.58
21826;BME280;11075;47.944;11.776;2023-03-19T05:07:54;94538.50;;;-2.06;61.57
21826;BME280;11075;47.944;11.776;2023-03-19T05:10:23;94536.50;;;1.18;44.54
21826;BME280;11075;47.944;11.776;2023-03-19T05:12:50;94547.31;;;1.27;43.84
21826;BME280;11075;47.944;11.776;2023-03-19T05:15:18;94550.91;;;2.27;41.18
21826;BME280;11075;47.944;11.776;2023-03-19T05:17:55;94556.06;;;1.99;41.70
21826;BME280;11075;47.944;11.776;2023-03-19T05:20:26;94540.38;;;0.73;44.41
21826;BME280;11075;47.944;11.776;2023-03-19T05:23:00;94533.84;;;0.21;45.96
21826;BME280;11075;47.944;11.776;2023-03-19T05:25:49;94542.59;;;0.61;44.91
21826;BME280;11075;47.944;11.776;2023-03-19T05:28:23;94554.38;;;0.45;45.24
21826;BME280;11075;47.944;11.776;2023-03-19T05:30:49;94548.41;;;-0.25;46.17
21826;BME280;11075;47.944;11.776;2023-03-19T05:33:24;94567.38;;;0.80;44.04
21826;BME280;11075;47.944;11.776;2023-03-19T05:35:52;94568.06;;;0.91;44.04
21826;BME280;11075;47.944;11.776;2023-03-19T05:38:41;94573.03;;;-0.25;47.16
21826;BME280;11075;47.944;11.776;2023-03-19T05:41:14;94571.22;;;-0.39;47.30
21826;BME280;11075;47.944;11.776;2023-03-19T05:43:53;94575.31;;;-0.78;48.89
21826;BME280;11075;47.944;11.776;2023-03-19T05:46:38;94588.34;;;0.77;45.32
21826;BME280;11075;47.944;11.776;2023-03-19T05:49:05;94570.84;;;0.76;46.04
21826;BME280;11075;47.944;11.776;2023-03-19T05:51:32;94584.44;;;0.69;46.95
21826;BME280;11075;47.944;11.776;2023-03-19T05:53:59;94585.44;;;1.65;44.05
21826;BME280;11075;47.944;11.776;2023-03-19T05:56:35;94582.91;;;1.98;43.87
21826;BME280;11075;47.944;11.776;2023-03-19T05:59:21;94589.41;;;2.10;43.62
21826;BME280;11075;47.944;11.776;2023-03-19T06:02:04;94587.34;;;1.83;44.50
21826;BME280;11075;47.944;11.776;2023-03-19T06:04:33;94597.84;;;1.17;45.84
21826;BME280;11075;47.944;11.776;2023-03-19T06:07:00;94601.50;;;2.59;43.17
21826;BME280;11075;47.944;11.776;2023-03-19T06:09:27;94619.44;;;2.30;43.22
21826;BME280;11075;47.944;11.776;2023-03-19T06:11:55;94606.22;;;2.25;43.87
21826;BME280;11075;47.944;11.776;2023-03-19T06:14:45;94605.91;;;2.07;44.37
21826;BME280;11075;47.944;11.776;2023-03-19T06:17:31;94624.78;;;3.51;40.91
21826;BME280;11075;47.944;11.776;2023-03-19T06:20:03;94599.91;;;2.96;42.38
21826;BME280;11075;47.944;11.776;2023-03-19T06:22:30;94641.25;;;3.99;39.22
21826;BME280;11075;47.944;11.776;2023-03-19T06:24:56;94642.81;;;4.42;38.71
21826;BME280;11075;47.944;11.776;2023-03-19T06:27:23;94618.56;;;3.42;40.01
21826;BME280;11075;47.944;11.776;2023-03-19T06:29:56;94624.34;;;4.31;39.73
21826;BME280;11075;47.944;11.776;2023-03-19T06:32:29;94645.19;;;4.16;38.87
21826;BME280;11075;47.944;11.776;2023-03-19T06:35:01;94662.47;;;4.18;38.98
21826;BME280;11075;47.944;11.776;2023-03-19T06:37:28;94651.22;;;4.35;39.71
21826;BME280;11075;47.944;11.776;2023-03-19T06:39:55;94636.16;;;3.57;40.03
21826;BME280;11075;47.944;11.776;2023-03-19T06:42:22;94659.03;;;4.18;38.81
21826;BME280;11075;47.944;11.776;2023-03-19T06:44:50;94658.72;;;4.05;38.90
21826;BME280;11075;47.944;11.776;2023-03-19T06:47:19;94669.09;;;4.34;37.96
21826;BME280;11075;47.944;11.776;2023-03-19T06:49:46;94644.22;;;3.52;39.40
21826;BME280;11075;47.944;11.776;2023-03-19T06:52:13;94624.63;;;2.21;41.28
21826;BME280;11075;47.944;11.776;2023-03-19T06:54:40;94658.44;;;3.15;40.67
21826;BME280;11075;47.944;11.776;2023-03-19T06:57:07;94676.38;;;3.74;40.43
21826;BME280;11075;47.944;11.776;2023-03-19T06:59:34;94664.84;;;2.14;43.14
21826;BME280;11075;47.944;11.776;2023-03-19T07:02:01;94665.81;;;1.76;42.47
21826;BME280;11075;47.944;11.776;2023-03-19T07:04:29;94706.25;;;2.21;43.15
21826;BME280;11075;47.944;11.776;2023-03-19T07:06:56;94711.75;;;3.93;39.88
21826;BME280;11075;47.944;11.776;2023-03-19T07:09:23;94674.63;;;2.62;42.02
21826;BME280;11075;47.944;11.776;2023-03-19T07:11:50;94699.88;;;1.01;45.10
21826;BME280;11075;47.944;11.776;2023-03-19T07:14:17;94716.28;;;0.64;46.14
21826;BME280;11075;47.944;11.776;2023-03-19T07:16:44;94721.22;;;0.80;47.53
21826;BME280;11075;47.944;11.776;2023-03-19T07:19:11;94734.94;;;0.43;48.01
21826;BME280;11075;47.944;11.776;2023-03-19T07:21:38;94720.34;;;0.46;47.32
21826;BME280;11075;47.944;11.776;2023-03-19T07:24:05;94733.47;;;1.15;45.91
21826;BME280;11075;47.944;11.776;2023-03-19T07:26:32;94733.69;;;0.80;46.90
21826;BME280;11075;47.944;11.776;2023-03-19T07:28:59;94738.41;;;0.93;47.03
21826;BME280;11075;47.944;11.776;2023-03-19T07:31:27;94753.09;;;1.54;46.02
21826;BME280;11075;47.944;11.776;2023-03-19T07:33:54;94753.28;;;1.28;46.16
21826;BME280;11075;47.944;11.776;2023-03-19T07:36:21;94765.97;;;0.28;47.30
21826;BME280;11075;47.944;11.776;2023-03-19T07:38:48;94758.66;;;2.87;42.69
21826;BME280;11075;47.944;11.776;2023-03-19T07:41:15;94782.19;;;3.36;42.80
21826;BME280;11075;47.944;11.776;2023-03-19T07:43:42;94755.53;;;1.84;44.63
21826;BME280;11075;47.944;11.776;2023-03-19T07:46:09;94760.03;;;1.49;45.57
21826;BME280;11075;47.944;11.776;2023-03-19T07:48:37;94764.13;;;1.71;45.79
21826;BME280;11075;47.944;11.776;2023-03-19T07:51:04;94758.06;;;3.46;43.49
21826;BME280;11075;47.944;11.776;2023-03-19T07:53:31;94763.72;;;4.10;41.82
21826;BME280;11075;47.944;11.776;2023-03-19T07:55:57;94755.53;;;4.20;40.76
21826;BME280;11075;47.944;11.776;2023-03-19T07:58:24;94765.00;;;4.12;40.63
21826;BME280;11075;47.944;11.776;2023-03-19T08:00:52;94767.56;;;3.71;41.25
21826;BME280;11075;47.944;11.776;2023-03-19T08:03:19;94781.81;;;4.40;40.11
21826;BME280;11075;47.944;11.776;2023-03-19T08:05:50;94766.03;;;3.65;41.86
21826;BME280;11075;47.944;11.776;2023-03-19T08:08:18;94772.44;;;4.29;41.00
21826;BME280;11075;47.944;11.776;2023-03-19T08:10:45;94752.38;;;3.53;42.10
21826;BME280;11075;47.944;11.776;2023-03-19T08:13:13;94771.28;;;4.62;41.28
21826;BME280;11075;47.944;11.776;2023-03-19T08:15:40;94753.75;;;4.29;41.71
21826;BME280;11075;47.944;11.776;2023-03-19T08:18:07;94759.84;;;4.02;44.04
21826;BME280;11075;47.944;11.776;2023-03-19T08:20:35;94767.97;;;4.11;42.52
21826;BME280;11075;47.944;11.776;2023-03-19T08:23:02;94759.97;;;5.07;40.28
21826;BME280;11075;47.944;11.776;2023-03-19T08:25:29;94775.13;;;6.23;39.18
21826;BME280;11075;47.944;11.776;2023-03-19T08:27:59;94771.72;;;5.42;40.13
21826;BME280;11075;47.944;11.776;2023-03-19T08:30:26;94770.19;;;4.91;41.87
21826;BME280;11075;47.944;11.776;2023-03-19T08:32:53;94760.09;;;4.60;42.21
21826;BME280;11075;47.944;11.776;2023-03-19T08:35:20;94777.38;;;6.60;38.05
21826;BME280;11075;47.944;11.776;2023-03-19T08:37:47;94760.13;;;3.87;41.80
21826;BME280;11075;47.944;11.776;2023-03-19T08:40:14;94783.47;;;6.21;38.94
21826;BME280;11075;47.944;11.776;2023-03-19T08:42:41;94761.31;;;5.76;39.37
21826;BME280;11075;47.944;11.776;2023-03-19T08:45:12;94768.66;;;5.12;39.69
21826;BME280;11075;47.944;11.776;2023-03-19T08:47:40;94791.78;;;5.17;40.54
21826;BME280;11075;47.944;11.776;2023-03-19T08:50:08;94784.00;;;6.32;38.77
21826;BME280;11075;47.944;11.776;2023-03-19T08:52:36;94781.44;;;4.88;39.50
21826;BME280;11075;47.944;11.776;2023-03-19T08:55:03;94790.25;;;5.52;39.98
21826;BME280;11075;47.944;11.776;2023-03-19T08:57:31;94796.84;;;6.21;38.23
21826;BME280;11075;47.944;11.776;2023-03-19T08:59:57;94791.94;;;6.15;39.07
21826;BME280;11075;47.944;11.776;2023-03-19T09:02:25;94795.59;;;5.96;38.26
21826;BME280;11075;47.944;11.776;2023-03-19T09:04:52;94787.91;;;4.13;41.17
21826;BME280;11075;47.944;11.776;2023-03-19T09:07:19;94792.50;;;5.09;39.63
21826;BME280;11075;47.944;11.776;2023-03-19T09:09:46;94765.56;;;4.69;40.97
21826;BME280;11075;47.944;11.776;2023-03-19T09:12:14;94786.84;;;5.60;39.34
21826;BME280;11075;47.944;11.776;2023-03-19T09:14:42;94786.38;;;5.80;38.83
21826;BME280;11075;47.944;11.776;2023-03-19T09:17:10;94796.56;;;5.78;38.64
21826;BME280;11075;47.944;11.776;2023-03-19T09:19:38;94767.13;;;4.70;40.71
21826;BME280;11075;47.944;11.776;2023-03-19T09:22:06;94793.78;;;4.43;40.24
21826;BME280;11075;47.944;11.776;2023-03-19T09:24:33;94809.19;;;5.28;38.97
21826;BME280;11075;47.944;11.776;2023-03-19T09:27:00;94791.50;;;4.36;40.23
21826;BME280;11075;47.944;11.776;2023-03-19T09:29:27;94801.31;;;5.09;39.08
21826;BME280;11075;47.944;11.776;2023-03-19T09:31:54;94791.53;;;5.54;38.92
21826;BME280;11075;47.944;11.776;2023-03-19T09:34:21;94791.44;;;6.13;38.46
21826;BME280;11075;47.944;11.776;2023-03-19T09:36:47;94772.84;;;3.38;42.22
21826;BME280;11075;47.944;11.776;2023-03-19T09:39:15;94793.81;;;3.96;41.28
21826;BME280;11075;47.944;11.776;2023-03-19T09:41:57;94798.13;;;5.21;39.74
21826;BME280;11075;47.944;11.776;2023-03-19T09:44:37;94800.09;;;5.87;38.62
21826;BME280;11075;47.944;11.776;2023-03-19T09:47:33;94819.78;;;6.14;37.54
21826;BME280;11075;47.944;11.776;2023-03-19T09:50:20;94813.88;;;5.81;37.29
21826;BME280;11075;47.944;11.776;2023-03-19T09:53:02;94850.22;;;8.49;33.78
21826;BME280;11075;47.944;11.776;2023-03-19T09:55:57;94821.09;;;7.78;34.86
21826;BME280;11075;47.944;11.776;2023-03-19T09:58:34;94822.69;;;7.71;34.52
21826;BME280;11075;47.944;11.776;2023-03-19T10:01:02;94809.41;;;7.48;35.34
21826;BME280;11075;47.944;11.776;2023-03-19T10:12:14;94813.53;;;7.54;35.63
21826;BME280;11075;47.944;11.776;2023-03-19T10:17:21;94784.31;;;6.70;36.04
21826;BME280;11075;47.944;11.776;2023-03-19T10:19:53;94793.47;;;7.35;35.79
21826;BME280;11075;47.944;11.776;2023-03-19T10:22:26;94812.22;;;8.30;34.60
21826;BME280;11075;47.944;11.776;2023-03-19T10:24:56;94800.06;;;8.23;34.11
21826;BME280;11075;47.944;11.776;2023-03-19T10:27:26;94799.63;;;7.44;35.11
21826;BME280;11075;47.944;11.776;2023-03-19T10:29:57;94798.38;;;7.67;34.75
21826;BME280;11075;47.944;11.776;2023-03-19T10:32:45;94780.16;;;6.47;36.12
21826;BME280;11075;47.944;11.776;2023-03-19T10:35:23;94802.94;;;7.32;35.03
21826;BME280;11075;47.944;11.776;2023-03-19T10:37:53;94823.19;;;9.01;33.22
21826;BME280;11075;47.944;11.776;2023-03-19T10:40:27;94820.84;;;8.52;33.08
21826;BME280;11075;47.944;11.776;2023-03-19T10:45:42;94782.91;;;8.07;34.89
21826;BME280;11075;47.944;11.776;2023-03-19T10:48:14;94799.31;;;8.61;34.08
21826;BME280;11075;47.944;11.776;2023-03-19T10:50:51;94795.41;;;8.97;33.55
21826;BME280;11075;47.944;11.776;2023-03-19T10:53:33;94799.44;;;9.11;33.03
21826;BME280;11075;47.944;11.776;2023-03-19T10:56:21;94789.41;;;8.53;33.97
21826;BME280;11075;47.944;11.776;2023-03-19T10:59:18;94795.94;;;8.35;34.45
21826;BME280;11075;47.944;11.776;2023-03-19T11:01:47;94831.63;;;9.91;31.68
21826;BME280;11075;47.944;11.776;2023-03-19T11:04:18;94819.16;;;8.77;32.57
21826;BME280;11075;47.944;11.776;2023-03-19T11:07:23;94738.94;;;6.25;36.60
21826;BME280;11075;47.944;11.776;2023-03-19T11:09:47;94804.03;;;7.91;34.25
21826;BME280;11075;47.944;11.776;2023-03-19T11:12:19;94794.22;;;8.30;33.70
21826;BME280;11075;47.944;11.776;2023-03-19T11:14:48;94822.13;;;9.73;32.56
21826;BME280;11075;47.944;11.776;2023-03-19T11:17:36;94773.94;;;7.34;35.07
21826;BME280;11075;47.944;11.776;2023-03-19T11:20:30;94759.72;;;6.59;35.48
21826;BME280;11075;47.944;11.776;2023-03-19T11:22:59;94790.00;;;7.95;34.37
21826;BME280;11075;47.944;11.776;2023-03-19T11:25:34;94750.06;;;6.41;35.87
21826;BME280;11075;47.944;11.776;2023-03-19T11:28:13;94759.38;;;6.52;36.13
21826;BME280;11075;47.944;11.776;2023-03-19T11:41:24;94816.44;;;9.24;31.33
21826;BME280;11075;47.944;11.776;2023-03-19T11:43:58;94814.44;;;9.83;31.10
21826;BME280;11075;47.944;11.776;2023-03-19T11:52:15;94791.56;;;12.65;28.98
21826;BME280;11075;47.944;11.776;2023-03-19T12:03:36;94737.69;;;12.41;30.78
21826;BME280;11075;47.944;11.776;2023-03-19T12:06:24;94779.81;;;13.94;28.04
21826;BME280;11075;47.944;11.776;2023-03-19T12:09:08;94792.16;;;13.91;27.12
21826;BME280;11075;47.944;11.776;2023-03-19T12:11:45;94761.72;;;12.93;28.71
21826;BME280;11075;47.944;11.776;2023-03-19T12:35:55;94781.09;;;12.63;26.14
21826;BME280;11075;47.944;11.776;2023-03-19T12:38:42;94798.97;;;13.31;25.57
21826;BME280;11075;47.944;11.776;2023-03-19T12:41:21;94779.03;;;14.32;25.81
21826;BME280;11075;47.944;11.776;2023-03-19T12:44:05;94773.91;;;13.88;25.65
21826;BME280;11075;47.944;11.776;2023-03-19T12:46:38;94819.84;;;15.87;23.17
21826;BME280;11075;47.944;11.776;2023-03-19T12:49:18;94832.41;;;16.29;22.76
21826;BME280;11075;47.944;11.776;2023-03-19T12:51:55;94832.28;;;16.89;21.42
21826;BME280;11075;47.944;11.776;2023-03-19T12:54:44;94854.69;;;18.29;20.10
21826;BME280;11075;47.944;11.776;2023-03-19T12:57:41;94836.50;;;15.06;22.22
21826;BME280;11075;47.944;11.776;2023-03-19T13:00:31;94692.66;;;9.74;29.93
21826;BME280;11075;47.944;11.776;2023-03-19T13:05:57;94739.84;;;12.82;25.92
21826;BME280;11075;47.944;11.776;2023-03-19T13:08:30;94755.13;;;14.38;24.59
21826;BME280;11075;47.944;11.776;2023-03-19T13:11:04;94706.56;;;11.59;27.89
21826;BME280;11075;47.944;11.776;2023-03-19T13:13:51;94750.28;;;14.08;24.36
21826;BME280;11075;47.944;11.776;2023-03-19T13:16:39;94677.53;;;12.28;28.48
21826;BME280;11075;47.944;11.776;2023-03-19T13:19:29;94697.34;;;11.88;27.49
21826;BME280;11075;47.944;11.776;2023-03-19T13:22:02;94701.16;;;11.59;28.04
21826;BME280;11075;47.944;11.776;2023-03-19T13:24:34;94670.34;;;10.68;29.41
21826;BME280;11075;47.944;11.776;2023-03-19T13:27:06;94651.25;;;10.24;29.12
21826;BME280;11075;47.944;11.776;2023-03-19T13:29:35;94633.84;;;9.52;30.92
21826;BME280;11075;47.944;11.776;2023-03-19T13:32:22;94611.97;;;9.53;31.84
21826;BME280;11075;47.944;11.776;2023-03-19T13:34:49;94661.44;;;10.06;29.59
21826;BME280;11075;47.944;11.776;2023-03-19T13:37:18;94643.41;;;10.19;30.40
21826;BME280;11075;47.944;11.776;2023-03-19T13:39:46;94692.69;;;12.17;27.58
21826;BME280;11075;47.944;11.776;2023-03-19T13:42:38;94712.47;;;12.99;26.58
21826;BME280;11075;47.944;11.776;2023-03-19T13:45:39;94716.72;;;12.22;25.97
21826;BME280;11075;47.944;11.776;2023-03-19T13:51:00;94644.84;;;10.04;30.84
21826;BME280;11075;47.944;11.776;2023-03-19T13:55:57;94623.91;;;7.72;32.51
21826;BME280;11075;47.944;11.776;2023-03-19T13:58:29;94613.09;;;7.43;33.05
21826;BME280;11075;47.944;11.776;2023-03-19T14:03:55;94607.41;;;7.53;33.49
21826;BME280;11075;47.944;11.776;2023-03-19T14:09:03;94645.41;;;8.40;31.84
21826;BME280;11075;47.944;11.776;2023-03-19T14:11:33;94654.63;;;8.89;30.57
21826;BME280;11075;47.944;11.776;2023-03-19T14:14:03;94656.75;;;9.58;30.60
21826;BME280;11075;47.944;11.776;2023-03-19T14:16:37;94662.66;;;9.31;30.14
21826;BME280;11075;47.944;11.776;2023-03-19T14:19:11;94673.53;;;9.34;29.95
21826;BME280;11075;47.944;11.776;2023-03-19T14:22:07;94628.44;;;7.80;32.25
21826;BME280;11075;47.944;11.776;2023-03-19T14:24:37;94666.75;;;10.76;28.70
21826;BME280;11075;47.944;11.776;2023-03-19T14:27:29;94698.50;;;10.95;27.56
21826;BME280;11075;47.944;11.776;2023-03-19T14:30:06;94673.81;;;10.80;28.59
21826;BME280;11075;47.944;11.776;2023-03-19T14:32:37;94660.03;;;10.70;28.63
21826;BME280;11075;47.944;11.776;2023-03-19T14:35:14;94668.97;;;11.10;28.57